Map

Track Data

SID SEASON NUMBER BASIN SUBBASIN NAME ISO_TIME NATURE LAT LON WMO_WIND WMO_PRES WMO_AGENCY TRACK_TYPE DIST2LAND LANDFALL IFLAG USA_AGENCY USA_ATCF_ID USA_LAT USA_LON USA_RECORD USA_STATUS USA_WIND USA_PRES USA_SSHS USA_R34_NE USA_R34_SE USA_R34_SW USA_R34_NW USA_R50_NE USA_R50_SE USA_R50_SW USA_R50_NW USA_R64_NE USA_R64_SE USA_R64_SW USA_R64_NW USA_POCI USA_ROCI USA_RMW USA_EYE TOKYO_LAT TOKYO_LON TOKYO_GRADE TOKYO_WIND TOKYO_PRES TOKYO_R50_DIR TOKYO_R50_LONG TOKYO_R50_SHORT TOKYO_R30_DIR TOKYO_R30_LONG TOKYO_R30_SHORT TOKYO_LAND CMA_LAT CMA_LON CMA_CAT CMA_WIND CMA_PRES HKO_LAT HKO_LON HKO_CAT HKO_WIND HKO_PRES NEWDELHI_LAT NEWDELHI_LON NEWDELHI_GRADE NEWDELHI_WIND NEWDELHI_PRES NEWDELHI_CI NEWDELHI_DP NEWDELHI_POCI REUNION_LAT REUNION_LON REUNION_TYPE REUNION_WIND REUNION_PRES REUNION_TNUM REUNION_CI REUNION_RMW REUNION_R34_NE REUNION_R34_SE REUNION_R34_SW REUNION_R34_NW REUNION_R50_NE REUNION_R50_SE REUNION_R50_SW REUNION_R50_NW REUNION_R64_NE REUNION_R64_SE REUNION_R64_SW REUNION_R64_NW BOM_LAT BOM_LON BOM_TYPE BOM_WIND BOM_PRES BOM_TNUM BOM_CI BOM_RMW BOM_R34_NE BOM_R34_SE BOM_R34_SW BOM_R34_NW BOM_R50_NE BOM_R50_SE BOM_R50_SW BOM_R50_NW BOM_R64_NE BOM_R64_SE BOM_R64_SW BOM_R64_NW BOM_ROCI BOM_POCI BOM_EYE BOM_POS_METHOD BOM_PRES_METHOD NADI_LAT NADI_LON NADI_CAT NADI_WIND NADI_PRES WELLINGTON_LAT WELLINGTON_LON WELLINGTON_WIND WELLINGTON_PRES DS824_LAT DS824_LON DS824_STAGE DS824_WIND DS824_PRES TD9636_LAT TD9636_LON TD9636_STAGE TD9636_WIND TD9636_PRES TD9635_LAT TD9635_LON TD9635_WIND TD9635_PRES TD9635_ROCI NEUMANN_LAT NEUMANN_LON NEUMANN_CLASS NEUMANN_WIND NEUMANN_PRES MLC_LAT MLC_LON MLC_CLASS MLC_WIND MLC_PRES USA_GUST BOM_GUST BOM_GUST_PER REUNION_GUST REUNION_GUST_PER USA_SEAHGT USA_SEARAD_NE USA_SEARAD_SE USA_SEARAD_SW USA_SEARAD_NW STORM_SPEED STORM_DIR
1917211N22127 1917 29 WP MM NOT_NAMED 1917-07-29 22:00:00 NR 21.5000 126.700 main 573 573 __________O___ -1 21.5000 126.700 2 7 55
1917211N22127 1917 29 WP MM NOT_NAMED 1917-07-30 00:00:00 NR 21.6338 126.907 main 589 586 __________P___ -1 21.6338 126.907 2 7 55
1917211N22127 1917 29 WP MM NOT_NAMED 1917-07-30 03:00:00 NR 21.8340 127.215 main 613 610 __________P___ -1 21.8340 127.215 2 7 55
1917211N22127 1917 29 WP MM NOT_NAMED 1917-07-30 06:00:00 NR 22.0338 127.516 main 636 631 __________P___ -1 22.0338 127.516 2 7 54
1917211N22127 1917 29 WP MM NOT_NAMED 1917-07-30 09:00:00 NR 22.2335 127.807 main 654 650 __________P___ -1 22.2335 127.807 2 7 53
1917211N22127 1917 29 WP MM NOT_NAMED 1917-07-30 10:00:00 NR 22.3000 127.900 main 659 659 __________O___ -1 22.3000 127.900 2 6 52
1917211N22127 1917 29 WP MM NOT_NAMED 1917-07-30 12:00:00 NR 22.4335 128.082 main 674 670 __________P___ -1 22.4335 128.082 2 6 51
1917211N22127 1917 29 WP MM NOT_NAMED 1917-07-30 15:00:00 NR 22.6401 128.347 main 685 691 __________P___ -1 22.6401 128.347 2 7 49
1917211N22127 1917 29 WP MM NOT_NAMED 1917-07-30 18:00:00 NR 22.8625 128.616 main 704 704 __________P___ -1 22.8625 128.616 2 7 47
1917211N22127 1917 29 WP MM NOT_NAMED 1917-07-30 21:00:00 NR 23.1102 128.900 main 728 726 __________P___ -1 23.1102 128.900 2 7 46
1917211N22127 1917 29 WP MM NOT_NAMED 1917-07-30 22:00:00 NR 23.2000 129.000 main 736 736 __________O___ -1 23.2000 129.000 2 8 46
1917211N22127 1917 29 WP MM NOT_NAMED 1917-07-31 00:00:00 NR 23.3965 129.221 main 751 751 __________P___ -1 23.3965 129.221 2 9 45
1917211N22127 1917 29 WP MM NOT_NAMED 1917-07-31 03:00:00 NR 23.7166 129.572 main 782 774 __________P___ -1 23.7166 129.572 2 9 45
1917211N22127 1917 29 WP MM NOT_NAMED 1917-07-31 06:00:00 NR 24.0530 129.933 main 774 738 __________P___ -1 24.0530 129.933 2 9 44
1917211N22127 1917 29 WP MM NOT_NAMED 1917-07-31 09:00:00 NR 24.3901 130.286 main 738 726 __________P___ -1 24.3901 130.286 2 9 44
1917211N22127 1917 29 WP MM NOT_NAMED 1917-07-31 10:00:00 NR 24.5000 130.400 main 726 703 __________O___ -1 24.5000 130.400 2 9 44
1917211N22127 1917 29 WP MM NOT_NAMED 1917-07-31 12:00:00 NR 24.7056 130.622 main 703 670 __________P___ -1 24.7056 130.622 2 9 44
1917211N22127 1917 29 WP MM NOT_NAMED 1917-07-31 15:00:00 NR 25.0078 130.943 main 670 638 __________P___ -1 25.0078 130.943 2 8 43
1917211N22127 1917 29 WP MM NOT_NAMED 1917-07-31 18:00:00 NR 25.3053 131.243 main 638 607 __________P___ -1 25.3053 131.243 2 8 41
1917211N22127 1917 29 WP MM NOT_NAMED 1917-07-31 21:00:00 NR 25.6012 131.516 main 607 598 __________P___ -1 25.6012 131.516 2 8 39
1917211N22127 1917 29 WP MM NOT_NAMED 1917-07-31 22:00:00 NR 25.7000 131.600 main 598 577 __________O___ -1 25.7000 131.600 2 8 36
1917211N22127 1917 29 WP MM NOT_NAMED 1917-08-01 00:00:00 NR 25.9024 131.762 main 579 548 __________P___ -1 25.9024 131.762 2 7 34
1917211N22127 1917 29 WP MM NOT_NAMED 1917-08-01 03:00:00 NR 26.2063 131.979 main 550 520 __________P___ -1 26.2063 131.979 2 7 31
1917211N22127 1917 29 WP MM NOT_NAMED 1917-08-01 06:00:00 NR 26.5077 132.171 main 523 493 __________P___ -1 26.5077 132.171 2 7 29
1917211N22127 1917 29 WP MM NOT_NAMED 1917-08-01 09:00:00 NR 26.8033 132.345 main 493 486 __________P___ -1 26.8033 132.345 2 7 28
1917211N22127 1917 29 WP MM NOT_NAMED 1917-08-01 10:00:00 NR 26.9000 132.400 main 486 469 __________O___ -1 26.9000 132.400 2 6 27
1917211N22127 1917 29 WP MM NOT_NAMED 1917-08-01 12:00:00 NR 27.0902 132.507 main 469 446 __________P___ -1 27.0902 132.507 2 6 26
1917211N22127 1917 29 WP MM NOT_NAMED 1917-08-01 15:00:00 NR 27.3688 132.660 main 446 430 __________P___ -1 27.3688 132.660 2 6 26
1917211N22127 1917 29 WP MM NOT_NAMED 1917-08-01 18:00:00 NR 27.6414 132.807 main 430 406 __________P___ -1 27.6414 132.807 2 6 26
1917211N22127 1917 29 WP MM NOT_NAMED 1917-08-01 21:00:00 NR 27.9106 132.952 main 411 401 __________P___ -1 27.9106 132.952 2 6 26
1917211N22127 1917 29 WP MM NOT_NAMED 1917-08-01 22:00:00 NR 28.0000 133.000 main 401 __________O___ -1 28.0000 133.000 2 6 23

Digital Typhoon Data and Search

About IBTrACS Database

This database is a web-friendly format of International Best Track Archive for Climate Stewardship (IBTrACS), a global best track data archive curated by NOAA dating back to 1842.

Updated: 2021-12-06